createdAt,value
2018-05-14T00:01:21.167Z,8.37
2018-05-14T00:03:49.743Z,7.80
2018-05-14T00:06:18.277Z,8.47
2018-05-14T00:08:47.564Z,7.93
2018-05-14T00:11:16.064Z,8.27
2018-05-14T00:13:45.312Z,8.57
2018-05-14T00:16:13.797Z,8.80
2018-05-14T00:18:42.308Z,8.43
2018-05-14T00:21:10.911Z,9.40
2018-05-14T00:23:39.412Z,8.80
2018-05-14T00:26:07.896Z,8.83
2018-05-14T00:28:36.365Z,8.50
2018-05-14T00:31:04.945Z,8.97
2018-05-14T00:33:33.467Z,8.50
2018-05-14T00:36:01.993Z,8.77
2018-05-14T00:38:30.484Z,9.10
2018-05-14T00:40:58.994Z,9.20
2018-05-14T00:43:27.523Z,8.50
2018-05-14T00:45:56.005Z,9.13
2018-05-14T00:48:25.259Z,9.07
2018-05-14T00:50:53.784Z,9.13
2018-05-14T00:53:22.269Z,9.50
2018-05-14T00:55:50.874Z,8.90
2018-05-14T00:58:19.365Z,10.70
2018-05-14T01:00:47.863Z,10.10
2018-05-14T01:03:16.399Z,10.40
2018-05-14T01:05:45.774Z,9.33
2018-05-14T01:08:14.257Z,8.93
2018-05-14T01:10:42.734Z,9.73
2018-05-14T01:13:11.255Z,8.67
2018-05-14T01:15:39.801Z,9.73
2018-05-14T01:18:08.308Z,9.20
2018-05-14T01:20:37.741Z,9.53
2018-05-14T01:23:06.247Z,9.17
2018-05-14T01:25:34.847Z,10.30
2018-05-14T01:28:03.499Z,9.50
2018-05-14T01:30:31.973Z,8.63
2018-05-14T01:33:00.506Z,9.97
2018-05-14T01:35:29.027Z,10.70
2018-05-14T01:37:57.752Z,11.20
2018-05-14T01:40:26.256Z,10.40
2018-05-14T01:42:54.780Z,9.97
2018-05-14T01:45:23.277Z,9.40
2018-05-14T01:47:51.749Z,10.03
2018-05-14T01:50:20.247Z,9.77
2018-05-14T01:52:49.030Z,10.10
2018-05-14T01:55:17.563Z,10.00
2018-05-14T01:57:46.040Z,10.87
2018-05-14T02:00:14.631Z,10.67
2018-05-14T02:02:43.229Z,10.90
2018-05-14T02:05:11.706Z,10.80
2018-05-14T02:07:40.344Z,11.10
2018-05-14T02:10:08.858Z,11.17
2018-05-14T02:12:37.357Z,11.73
2018-05-14T02:15:05.866Z,12.97
2018-05-14T02:17:34.355Z,12.37
2018-05-14T02:20:03.790Z,11.97
2018-05-14T02:22:32.386Z,12.10
2018-05-14T02:25:00.927Z,12.57
2018-05-14T02:27:29.448Z,12.40
2018-05-14T02:29:57.920Z,11.43
2018-05-14T02:32:26.428Z,11.63
2018-05-14T02:34:54.929Z,11.43
2018-05-14T02:37:23.546Z,12.20
2018-05-14T02:39:52.061Z,11.50
2018-05-14T02:42:20.576Z,11.83
2018-05-14T02:44:49.068Z,10.97
2018-05-14T02:47:18.319Z,11.77
2018-05-14T02:49:46.882Z,10.97
2018-05-14T02:52:15.395Z,11.63
2018-05-14T02:54:43.897Z,11.63
2018-05-14T02:57:12.461Z,12.47
2018-05-14T02:59:41.010Z,13.40
2018-05-14T03:02:09.522Z,13.67
2018-05-14T03:04:38.165Z,11.60
2018-05-14T03:07:07.460Z,11.30
2018-05-14T03:09:35.936Z,11.23
2018-05-14T03:12:05.271Z,10.43
2018-05-14T03:14:33.884Z,9.90
2018-05-14T03:17:03.173Z,9.37
2018-05-14T03:19:32.465Z,8.70
2018-05-14T03:22:01.008Z,9.50
2018-05-14T03:24:30.272Z,9.50
2018-05-14T03:26:59.520Z,10.37
2018-05-14T03:29:28.148Z,9.77
2018-05-14T03:31:56.663Z,9.90
2018-05-14T03:34:25.275Z,9.87
2018-05-14T03:36:53.870Z,9.57
2018-05-14T03:39:22.383Z,10.33
2018-05-14T03:41:50.948Z,10.03
2018-05-14T03:44:19.502Z,10.23
2018-05-14T03:46:48.069Z,10.33
2018-05-14T03:49:16.558Z,10.40
2018-05-14T03:51:45.901Z,10.13
2018-05-14T03:54:14.436Z,10.47
2018-05-14T03:56:43.032Z,10.87
2018-05-14T03:59:23.406Z,10.57
2018-05-14T04:02:15.639Z,9.50
2018-05-14T04:04:55.875Z,8.70
2018-05-14T04:07:24.454Z,8.70
2018-05-14T04:09:53.758Z,8.20
2018-05-14T04:12:23.172Z,12.70
2018-05-14T04:14:51.720Z,8.47
2018-05-14T04:17:21.015Z,7.40
2018-05-14T04:19:49.713Z,7.80
2018-05-14T04:22:18.313Z,7.60
2018-05-14T04:24:46.812Z,7.30
2018-05-14T04:27:15.313Z,7.53
2018-05-14T04:29:43.862Z,7.47
2018-05-14T04:32:12.469Z,7.13
2018-05-14T04:34:40.999Z,7.93
2018-05-14T04:37:09.525Z,7.50
2018-05-14T04:39:38.011Z,7.70
2018-05-14T04:42:06.544Z,7.87
2018-05-14T04:44:35.028Z,7.37
2018-05-14T04:47:03.551Z,7.90
2018-05-14T04:49:32.037Z,7.80
2018-05-14T04:52:00.574Z,7.93
2018-05-14T04:54:29.081Z,7.60
2018-05-14T04:56:57.588Z,7.40
2018-05-14T04:59:26.107Z,7.37
2018-05-14T05:01:54.719Z,7.13
2018-05-14T05:04:23.240Z,7.40
2018-05-14T05:06:51.828Z,6.97
2018-05-14T05:09:20.383Z,7.13
2018-05-14T05:11:48.925Z,7.10
2018-05-14T05:14:17.466Z,7.47
2018-05-14T05:16:45.977Z,7.40
2018-05-14T05:19:14.581Z,7.07
2018-05-14T05:21:43.114Z,7.13
2018-05-14T05:24:11.696Z,7.10
2018-05-14T05:26:40.438Z,7.70
2018-05-14T05:29:08.959Z,7.10
2018-05-14T05:31:37.451Z,7.10
2018-05-14T05:34:05.987Z,7.53
2018-05-14T05:36:35.269Z,7.60
2018-05-14T05:39:04.016Z,7.33
2018-05-14T05:41:32.685Z,7.53
2018-05-14T05:44:01.261Z,7.20
2018-05-14T05:46:29.751Z,7.00
2018-05-14T05:48:58.334Z,7.13
2018-05-14T05:51:26.960Z,6.97
2018-05-14T05:53:56.243Z,7.17
2018-05-14T05:56:24.787Z,6.90
2018-05-14T05:58:53.273Z,6.93
2018-05-14T06:01:21.898Z,7.50
2018-05-14T06:03:50.454Z,7.03
2018-05-14T06:06:18.958Z,7.00
2018-05-14T06:08:47.518Z,7.40
2018-05-14T06:11:16.066Z,6.80
2018-05-14T06:13:44.684Z,7.33
2018-05-14T06:16:14.125Z,7.10
2018-05-14T06:18:42.782Z,7.53
2018-05-14T06:21:11.317Z,6.87
2018-05-14T06:23:39.843Z,7.43
2018-05-14T06:26:08.493Z,6.93
2018-05-14T06:28:37.133Z,6.97
2018-05-14T06:31:05.749Z,6.63
2018-05-14T06:33:35.005Z,7.23
2018-05-14T06:36:03.648Z,6.60
2018-05-14T06:38:32.971Z,6.40
2018-05-14T06:41:01.621Z,6.60
2018-05-14T06:43:30.731Z,6.93
2018-05-14T06:45:59.252Z,6.53
2018-05-14T06:48:27.751Z,6.60
2018-05-14T06:50:57.062Z,6.17
2018-05-14T06:53:25.594Z,5.77
2018-05-14T06:55:54.145Z,6.03
2018-05-14T06:58:22.713Z,5.70
2018-05-14T07:00:51.344Z,6.00
2018-05-14T07:03:19.875Z,5.97
2018-05-14T07:05:49.182Z,5.83
2018-05-14T07:08:17.736Z,5.90
2018-05-14T07:10:46.285Z,5.90
2018-05-14T07:13:14.828Z,5.97
2018-05-14T07:15:43.404Z,6.03
2018-05-14T07:18:12.144Z,6.10
2018-05-14T07:20:40.789Z,5.87
2018-05-14T07:23:09.482Z,5.50
2018-05-14T07:25:38.168Z,5.53
2018-05-14T07:28:06.699Z,5.57
2018-05-14T07:30:35.238Z,5.53
2018-05-14T07:33:03.912Z,5.67
2018-05-14T07:35:32.609Z,5.60
2018-05-14T07:38:01.621Z,5.63
2018-05-14T07:40:30.226Z,5.27
2018-05-14T07:42:59.488Z,5.43
2018-05-14T07:45:28.381Z,5.20
2018-05-14T07:47:56.995Z,5.60
2018-05-14T07:50:25.511Z,5.40
2018-05-14T07:52:54.166Z,5.30
2018-05-14T07:55:22.858Z,4.87
2018-05-14T07:57:51.643Z,5.03
2018-05-14T08:00:20.258Z,5.20
2018-05-14T08:02:48.771Z,5.13
2018-05-14T08:05:17.388Z,5.10
2018-05-14T08:07:46.197Z,5.53
2018-05-14T08:10:14.924Z,5.20
2018-05-14T08:12:43.677Z,4.97
2018-05-14T08:15:13.011Z,4.83
2018-05-14T08:17:42.687Z,5.20
2018-05-14T08:20:11.478Z,5.03
2018-05-14T08:22:40.119Z,4.70
2018-05-14T08:25:08.913Z,4.80
2018-05-14T08:27:37.555Z,4.53
2018-05-14T08:30:06.157Z,4.73
2018-05-14T08:32:34.872Z,5.03
2018-05-14T08:35:03.471Z,5.00
2018-05-14T08:37:32.115Z,4.67
2018-05-14T08:40:00.856Z,4.73
2018-05-14T08:42:29.498Z,4.40
2018-05-14T08:44:58.073Z,4.50
2018-05-14T08:47:26.949Z,4.43
2018-05-14T08:49:56.173Z,4.57
2018-05-14T08:52:24.995Z,4.30
2018-05-14T08:54:53.945Z,4.50
2018-05-14T08:57:22.501Z,4.40
2018-05-14T08:59:51.232Z,4.30
2018-05-14T09:02:20.943Z,4.47
2018-05-14T09:04:49.672Z,3.83
2018-05-14T09:07:18.445Z,4.00
2018-05-14T09:09:46.980Z,3.93
2018-05-14T09:12:15.865Z,3.90
2018-05-14T09:14:44.393Z,3.33
2018-05-14T09:17:13.158Z,3.27
2018-05-14T09:19:42.204Z,3.70
2018-05-14T09:22:10.900Z,3.40
2018-05-14T09:24:39.447Z,3.60
2018-05-14T09:27:08.104Z,3.60
2018-05-14T09:29:36.682Z,3.57
2018-05-14T09:32:05.394Z,3.87
2018-05-14T09:34:33.933Z,3.50
2018-05-14T09:37:02.657Z,3.70
2018-05-14T09:39:31.323Z,3.53
2018-05-14T09:42:00.084Z,3.70
2018-05-14T09:44:29.524Z,4.00
2018-05-14T09:46:58.052Z,3.47
2018-05-14T09:49:26.615Z,4.27
2018-05-14T09:51:55.202Z,3.60
2018-05-14T09:54:23.733Z,3.50
2018-05-14T09:56:52.231Z,3.97
2018-05-14T09:59:21.008Z,3.70
2018-05-14T10:01:49.600Z,4.07
2018-05-14T10:04:18.260Z,3.43
2018-05-14T10:06:46.963Z,4.07
2018-05-14T10:09:15.722Z,4.13
2018-05-14T10:11:44.473Z,3.60
2018-05-14T10:14:13.124Z,3.80
2018-05-14T10:16:41.683Z,3.60
2018-05-14T10:19:10.438Z,3.90
2018-05-14T10:21:39.109Z,4.20
2018-05-14T10:24:07.708Z,4.53
2018-05-14T10:26:36.392Z,3.77
2018-05-14T10:29:05.086Z,4.03
2018-05-14T10:31:33.641Z,4.07
2018-05-14T10:34:02.238Z,3.60
2018-05-14T10:36:30.850Z,3.70
2018-05-14T10:45:43.748Z,3.67
2018-05-14T10:48:12.534Z,3.80
2018-05-14T10:50:41.156Z,3.60
2018-05-14T10:53:09.932Z,3.90
2018-05-14T10:55:38.919Z,3.70
2018-05-14T10:58:07.575Z,3.83
2018-05-14T11:00:36.828Z,3.53
2018-05-14T11:03:05.606Z,3.77
2018-05-14T11:05:34.157Z,3.87
2018-05-14T11:08:02.852Z,3.63
2018-05-14T11:10:31.616Z,3.50
2018-05-14T11:13:00.294Z,3.83
2018-05-14T11:22:13.512Z,3.53
2018-05-14T11:24:42.121Z,3.80
2018-05-14T11:27:10.759Z,4.17
2018-05-14T11:29:39.246Z,4.07
2018-05-14T11:32:07.749Z,3.60
2018-05-14T11:34:37.136Z,4.10
2018-05-14T11:37:05.777Z,4.17
2018-05-14T11:39:34.426Z,3.90
2018-05-14T11:42:03.199Z,3.80
2018-05-14T11:44:31.842Z,4.10
2018-05-14T11:47:00.754Z,3.50
2018-05-14T11:49:29.556Z,3.70
2018-05-14T11:51:58.098Z,3.97
2018-05-14T11:54:26.690Z,3.87
2018-05-14T11:56:55.263Z,4.20
2018-05-14T11:59:23.856Z,3.70
2018-05-14T12:01:52.363Z,3.57
2018-05-14T12:04:21.036Z,4.00
2018-05-14T12:06:49.853Z,4.07
2018-05-14T12:09:18.605Z,4.13
2018-05-14T12:11:47.301Z,3.80
2018-05-14T12:14:15.965Z,3.90
2018-05-14T12:16:45.423Z,3.87
2018-05-14T12:19:14.947Z,3.60
2018-05-14T12:21:43.459Z,3.63
2018-05-14T12:24:12.090Z,4.27
2018-05-14T12:26:40.634Z,3.90
2018-05-14T12:29:09.289Z,3.77
2018-05-14T12:31:37.986Z,3.83
2018-05-14T12:34:06.621Z,3.90
2018-05-14T12:36:35.140Z,4.20
2018-05-14T12:39:03.759Z,3.90
2018-05-14T12:41:32.355Z,3.77
2018-05-14T12:44:00.857Z,3.50
2018-05-14T12:46:29.504Z,3.80
2018-05-14T12:48:57.991Z,3.80
2018-05-14T12:51:26.579Z,3.80
2018-05-14T12:53:55.054Z,3.67
2018-05-14T12:56:23.548Z,3.67
2018-05-14T12:58:52.077Z,3.80
2018-05-14T13:01:20.629Z,4.10
2018-05-14T13:03:49.125Z,3.63
2018-05-14T13:06:18.396Z,3.70
2018-05-14T13:08:46.897Z,3.70
2018-05-14T13:11:15.498Z,3.60
2018-05-14T13:13:44.138Z,3.77
2018-05-14T13:16:12.777Z,3.60
2018-05-14T13:18:41.398Z,3.87
2018-05-14T13:21:10.003Z,3.50
2018-05-14T13:23:38.476Z,3.57
2018-05-14T13:26:07.057Z,3.70
2018-05-14T13:28:35.587Z,3.80
2018-05-14T13:31:04.114Z,3.90
2018-05-14T13:33:32.629Z,3.80
2018-05-14T13:36:01.121Z,3.87
2018-05-14T13:38:29.747Z,4.17
2018-05-14T13:40:59.068Z,3.60
2018-05-14T13:43:27.659Z,3.50
2018-05-14T13:45:56.154Z,3.53
2018-05-14T13:48:24.633Z,3.40
2018-05-14T13:50:53.300Z,4.03
2018-05-14T13:53:21.802Z,3.50
2018-05-14T13:55:50.301Z,3.50
2018-05-14T13:58:19.558Z,3.90
2018-05-14T14:00:48.056Z,3.60
2018-05-14T14:03:16.553Z,3.80
2018-05-14T14:05:45.121Z,3.53
2018-05-14T14:08:13.631Z,4.17
2018-05-14T14:10:42.132Z,3.87
2018-05-14T14:13:10.644Z,3.90
2018-05-14T14:15:39.248Z,3.40
2018-05-14T14:18:07.733Z,3.73
2018-05-14T14:20:36.476Z,3.63
2018-05-14T14:23:05.214Z,3.70
2018-05-14T14:25:33.771Z,3.90
2018-05-14T14:28:02.438Z,3.60
2018-05-14T14:30:31.149Z,3.70
2018-05-14T14:32:59.686Z,3.87
2018-05-14T14:35:28.296Z,3.90
2018-05-14T14:38:01.626Z,3.60
2018-05-14T14:40:30.358Z,3.90
2018-05-14T14:42:58.956Z,3.53
2018-05-14T14:45:27.685Z,3.40
2018-05-14T14:47:56.180Z,3.70
2018-05-14T14:50:25.027Z,3.30
2018-05-14T14:52:53.596Z,3.80
2018-05-14T14:55:22.224Z,3.50
2018-05-14T14:57:53.089Z,3.33
2018-05-14T15:00:24.427Z,3.60
2018-05-14T15:02:53.131Z,3.57
2018-05-14T15:05:21.820Z,3.47
2018-05-14T15:07:50.352Z,3.50
2018-05-14T15:10:19.036Z,3.60
2018-05-14T15:12:47.911Z,3.77
2018-05-14T15:15:16.539Z,3.80
2018-05-14T15:17:45.063Z,3.40
2018-05-14T15:20:13.651Z,3.37
2018-05-14T15:22:43.073Z,3.40
2018-05-14T15:25:11.601Z,3.47
2018-05-14T15:27:40.259Z,3.80
2018-05-14T15:30:09.525Z,3.80
2018-05-14T15:32:38.131Z,3.63
2018-05-14T15:35:06.721Z,3.67
2018-05-14T15:37:35.471Z,3.93
2018-05-14T15:40:04.173Z,3.30
2018-05-14T15:42:32.691Z,3.60
2018-05-14T15:45:01.252Z,3.90
2018-05-14T15:47:30.031Z,3.87
2018-05-14T15:49:58.804Z,3.97
2018-05-14T15:52:27.598Z,3.67
2018-05-14T15:54:56.280Z,3.80
2018-05-14T15:57:25.097Z,3.90
2018-05-14T15:59:53.758Z,3.60
2018-05-14T16:02:23.415Z,3.93
2018-05-14T16:04:52.111Z,3.67
2018-05-14T16:07:20.872Z,4.20
2018-05-14T16:09:49.500Z,3.70
2018-05-14T16:12:18.672Z,4.00
2018-05-14T16:14:47.194Z,3.67
2018-05-14T16:17:16.460Z,3.93
2018-05-14T16:19:45.716Z,4.00
2018-05-14T16:22:14.237Z,3.87
2018-05-14T16:24:42.748Z,3.90
2018-05-14T16:27:12.235Z,3.60
2018-05-14T16:29:41.499Z,3.60
2018-05-14T16:32:12.472Z,3.80
2018-05-14T16:34:41.789Z,3.90
2018-05-14T16:37:10.476Z,3.80
2018-05-14T16:39:38.988Z,3.90
2018-05-14T16:42:07.645Z,3.80
2018-05-14T16:44:36.269Z,3.80
2018-05-14T16:47:05.623Z,4.10
2018-05-14T16:49:34.418Z,3.53
2018-05-14T16:52:03.298Z,3.60
2018-05-14T16:54:32.036Z,3.70
2018-05-14T16:57:00.654Z,3.63
2018-05-14T16:59:29.360Z,4.10
2018-05-14T17:01:59.140Z,3.67
2018-05-14T17:04:27.886Z,3.70
2018-05-14T17:06:57.282Z,3.90
2018-05-14T17:09:26.041Z,3.80
2018-05-14T17:11:54.790Z,4.10
2018-05-14T17:14:23.569Z,3.87
2018-05-14T17:16:53.809Z,4.37
2018-05-14T17:19:22.671Z,4.10
2018-05-14T17:21:51.389Z,3.97
2018-05-14T17:24:19.998Z,3.83
2018-05-14T17:26:48.735Z,4.10
2018-05-14T17:29:17.674Z,4.10
2018-05-14T17:31:46.443Z,4.20
2018-05-14T17:34:15.096Z,4.00
2018-05-14T17:36:44.631Z,3.87
2018-05-14T17:39:13.471Z,4.17
2018-05-14T17:41:42.050Z,3.80
2018-05-14T17:44:10.612Z,4.07
2018-05-14T17:46:39.308Z,3.60
2018-05-14T17:49:08.128Z,3.80
2018-05-14T17:51:36.798Z,3.73
2018-05-14T17:54:05.702Z,4.00
2018-05-14T17:56:36.007Z,3.77
2018-05-14T17:59:05.913Z,3.77
2018-05-14T18:01:35.795Z,3.87
2018-05-14T18:04:07.010Z,4.00
2018-05-14T18:06:36.462Z,4.13
2018-05-14T18:09:05.925Z,3.73
2018-05-14T18:11:34.511Z,4.10
2018-05-14T18:14:03.066Z,4.20
2018-05-14T18:16:31.678Z,4.00
2018-05-14T18:19:03.480Z,3.90
2018-05-14T18:21:38.613Z,4.50
2018-05-14T18:24:07.793Z,4.20
2018-05-14T18:26:41.869Z,4.40
2018-05-14T18:29:11.390Z,4.40
2018-05-14T18:31:46.235Z,4.40
2018-05-14T18:34:17.164Z,4.70
2018-05-14T18:36:46.673Z,4.83
2018-05-14T18:39:15.918Z,4.50
2018-05-14T18:41:44.663Z,4.50
2018-05-14T18:44:14.066Z,4.17
2018-05-14T18:46:42.645Z,4.50
2018-05-14T18:49:11.437Z,4.60
2018-05-14T18:51:40.241Z,4.40
2018-05-14T18:54:09.039Z,4.27
2018-05-14T18:56:37.828Z,4.20
2018-05-14T18:59:06.637Z,4.70
2018-05-14T19:01:36.110Z,4.57
2018-05-14T19:04:05.000Z,4.70
2018-05-14T19:06:37.359Z,4.53
2018-05-14T19:09:11.782Z,4.27
2018-05-14T19:11:47.612Z,5.00
2018-05-14T19:14:20.054Z,6.33
2018-05-14T19:16:54.620Z,8.47
2018-05-14T19:19:23.970Z,7.90
2018-05-14T19:21:52.580Z,7.35
2018-05-14T19:24:21.067Z,5.60
2018-05-14T19:26:49.556Z,5.63
2018-05-14T19:29:23.676Z,5.70
2018-05-14T19:31:52.692Z,5.27
2018-05-14T19:34:26.876Z,5.65
2018-05-14T19:36:55.380Z,5.17
2018-05-14T19:39:29.507Z,5.23
2018-05-14T19:41:58.004Z,5.33
2018-05-14T19:44:27.272Z,5.33
2018-05-14T19:46:55.853Z,4.80
2018-05-14T19:49:24.360Z,5.20
2018-05-14T19:51:52.922Z,5.23
2018-05-14T19:54:21.427Z,5.20
2018-05-14T19:56:49.949Z,5.33
2018-05-14T19:59:18.450Z,5.63
2018-05-14T20:01:46.937Z,5.83
2018-05-14T20:04:15.445Z,5.50
2018-05-14T20:06:44.001Z,5.40
2018-05-14T20:09:12.619Z,5.47
2018-05-14T20:11:41.108Z,5.10
2018-05-14T20:14:09.644Z,5.40
2018-05-14T20:16:38.143Z,5.10
2018-05-14T20:19:06.779Z,5.13
2018-05-14T20:21:35.258Z,4.93
2018-05-14T20:24:03.811Z,5.00
2018-05-14T20:26:33.120Z,5.00
2018-05-14T20:29:01.651Z,4.80
2018-05-14T20:31:30.186Z,5.00
2018-05-14T20:33:58.767Z,4.73
2018-05-14T20:36:28.007Z,5.23
2018-05-14T20:38:56.538Z,5.27
2018-05-14T20:41:25.101Z,4.77
2018-05-14T20:43:53.603Z,5.00
2018-05-14T20:46:22.086Z,4.90
2018-05-14T20:48:50.703Z,4.70
2018-05-14T20:51:19.251Z,4.70
2018-05-14T20:53:47.768Z,4.20
2018-05-14T20:56:16.247Z,4.63
2018-05-14T20:58:44.852Z,5.10
2018-05-14T21:01:13.331Z,4.97
2018-05-14T21:03:41.851Z,4.30
2018-05-14T21:06:10.453Z,4.93
2018-05-14T21:08:38.955Z,4.50
2018-05-14T21:11:07.476Z,4.93
2018-05-14T21:13:35.976Z,4.63
2018-05-14T21:16:04.666Z,4.70
2018-05-14T21:18:33.280Z,4.73
2018-05-14T21:21:02.532Z,4.80
2018-05-14T21:23:31.955Z,4.27
2018-05-14T21:26:00.475Z,4.93
2018-05-14T21:28:29.005Z,4.57
2018-05-14T21:30:58.244Z,4.60
2018-05-14T21:33:26.721Z,4.80
2018-05-14T21:35:55.901Z,4.77
2018-05-14T21:38:25.438Z,5.17
2018-05-14T21:40:53.941Z,4.93
2018-05-14T21:43:22.449Z,5.13
2018-05-14T21:45:50.993Z,5.07
2018-05-14T21:48:19.510Z,4.70
2018-05-14T21:50:47.992Z,4.93
2018-05-14T21:53:16.496Z,4.97
2018-05-14T21:55:45.092Z,4.90
2018-05-14T21:58:13.686Z,5.30
2018-05-14T22:00:42.171Z,5.13
2018-05-14T22:03:11.452Z,5.20
2018-05-14T22:05:50.661Z,5.27
2018-05-14T22:08:19.154Z,5.50
2018-05-14T22:10:47.630Z,5.10
2018-05-14T22:13:16.248Z,5.40
2018-05-14T22:15:45.518Z,5.80
2018-05-14T22:18:14.056Z,5.30
2018-05-14T22:20:42.559Z,5.53
2018-05-14T22:23:11.154Z,5.47
2018-05-14T22:25:39.722Z,5.57
2018-05-14T22:28:08.360Z,5.60
2018-05-14T22:30:37.653Z,5.40
2018-05-14T22:33:06.926Z,5.60
2018-05-14T22:35:35.425Z,5.73
2018-05-14T22:38:03.923Z,5.83
2018-05-14T22:40:33.254Z,5.80
2018-05-14T22:43:01.852Z,5.20
2018-05-14T22:45:30.472Z,5.30
2018-05-14T22:47:58.955Z,6.00
2018-05-14T22:50:27.479Z,5.60
2018-05-14T22:52:55.984Z,5.70
2018-05-14T22:55:24.603Z,5.87
2018-05-14T22:57:53.107Z,5.93
2018-05-14T23:00:28.611Z,6.50
2018-05-14T23:02:57.674Z,7.07
2018-05-14T23:05:26.155Z,6.60
2018-05-14T23:07:54.693Z,6.57
2018-05-14T23:10:23.978Z,6.30
2018-05-14T23:12:52.484Z,7.10
2018-05-14T23:15:21.757Z,7.40
2018-05-14T23:17:50.272Z,8.07
2018-05-14T23:20:18.779Z,6.83
2018-05-14T23:22:47.320Z,6.57
2018-05-14T23:25:15.935Z,6.47
2018-05-14T23:27:44.464Z,6.50
2018-05-14T23:30:13.006Z,6.10
2018-05-14T23:32:41.612Z,6.50
2018-05-14T23:35:10.143Z,5.80
2018-05-14T23:37:38.637Z,6.00
2018-05-14T23:40:07.214Z,6.27
2018-05-14T23:42:35.761Z,6.13
2018-05-14T23:45:04.384Z,6.40
2018-05-14T23:47:32.905Z,6.20
2018-05-14T23:50:01.404Z,6.75
2018-05-14T23:52:29.946Z,6.50
2018-05-14T23:54:58.442Z,6.47
2018-05-14T23:57:26.958Z,6.63
2018-05-14T23:59:55.476Z,7.20
